SBUL/UDI METAR and TAF weather

Enter ICAO airport designator
Station Type Date Time Source
SBUL METAR 2021/03/05 20:00 UTC NOAA

SBUL 052000Z 31007KT 5000 1500W -RA SCT040 FEW050TCU 25/18 Q1013


Station Type Date Time Source
SBUL Decoded METAR 2021/03/05 20:00 UTC NOAA

Uberlandia , Brazil (SBUL) 18-53S 048-14W
Mar 05, 2021 - 03:00 PM EST / 2021.03.05 2000 UTC
Wind: from the NW (310 degrees) at 8 MPH (7 KT):0
Visibility: 3 mile(s):0
Sky conditions: partly cloudy
Weather: light rain; Towering cumulus clouds observed
Temperature: 77 F (25 C)
Dew Point: 64 F (18 C)
Relative Humidity: 65%
Pressure (altimeter): 29.91 in. Hg (1013 hPa)
ob: SBUL 052000Z 31007KT 5000 1500W -RA SCT040 FEW050TCU 25/18 Q1013
cycle: 20

Station Type Date Time Source
SBUL TAF 2021/03/05 18:27 UTC NOAA

TAF SBUL 051606Z 0518/0606 33010KT 9999 FEW045 FEW047TCUTX27/0518Z TN21/0605Z
TEMPO 0518/0522 29013G25KT 7000 TSRA SCT040 FEW047CB
TEMPO 0522/0603 23007KT 8000 SHRA SCT035 FEW045TCU
TEMPO 0603/0606 20007KT 6000 TSRA SCT010 BKN020 FEW045CB
RMK PGO

Example: see airport list